Slayton, MN

5:32 AM CDT on August 19, 2017 (GMT -0500)
Slayton

Weather History for KDVP - December, 2012

Change the Weather History Date:

Tuesday, December 25, 2012

  Actual Average (KOTG) Record (KOTG)
Temperature  
Mean Temperature 0 °F -  
Max Temperature 6 °F 22 °F 42 °F (2011)
Min Temperature -5 °F 8 °F -21 °F (1983)
Degree Days  
Heating Degree Days 64    
Moisture  
Dew Point -4 °F    
Average Humidity 83    
Maximum Humidity 87    
Minimum Humidity 79    
Precipitation  
Precipitation 0.00 in - - ()
Sea Level Pressure  
Sea Level Pressure 30.39 in    
Wind  
Wind Speed 10 mph (NNW)    
Max Wind Speed 16 mph    
Max Gust Speed 18 mph    
Visibility 10 miles    
Events      
Averages and records for this station are not official NWS values.
T = Trace of Precipitation, MM = Missing Value Source: NWS Daily Summary

Daily Weather History Graph

Daily Weather History Graph

Search for Another Location

Airport or City:

Trip Planner

Search our weather history database for the weather conditions in past years. The results will help you decide how hot, cold, wet, or windy it might be!

Date:

Astronomy

Dec. 25, 2012 Rise Set
Actual Time 7:56 AM CST 4:50 PM CST
Civil Twilight 7:23 AM CST 5:23 PM CST
Nautical Twilight 6:46 AM CST 6:00 PM CST
Astronomical Twilight 6:11 AM CST 6:35 PM CST
Moon 3:00 PM CST (12/25) 5:28 AM CST (12/25)
Length of Visible Light 10h 00m
Length of Day
8h 54m
Waxing Gibbous, 94% of the Moon is Illuminated
Dec 25
Waxing Gibbous
Dec 28
Full
Jan 4
Last Quarter
Jan 11
New
Jan 18
First Quarter

Hourly Weather History & Observations

Time (CST) Temp. Windchill Dew Point Humidity Pressure Visibility Wind Dir Wind Speed Gust Speed Precip Events Conditions
12:15 AM -5.1 °F -22.5 °F -8.9 °F 84% 30.30 in 4.0 mi NNW 10.4 mph - N/A   Clear
12:34 AM -5.1 °F -22.5 °F -8.9 °F 84% 30.31 in 7.0 mi NW 10.4 mph - N/A   Clear
12:55 AM -5.1 °F -22.5 °F -8.7 °F 84% 30.31 in 10.0 mi NNW 10.4 mph - N/A   Clear
1:15 AM -5.1 °F -21.5 °F -8.5 °F 85% 30.32 in 10.0 mi NW 9.2 mph - N/A   Clear
1:35 AM -5.1 °F -23.5 °F -8.5 °F 85% 30.33 in 10.0 mi NW 11.5 mph - N/A   Clear
1:55 AM -4.9 °F -23.2 °F -8.5 °F 84% 30.33 in 10.0 mi NW 11.5 mph - N/A   Clear
2:15 AM -4.9 °F -22.3 °F -8.5 °F 84% 30.34 in 10.0 mi NNW 10.4 mph - N/A   Clear
2:35 AM -4.9 °F -21.3 °F -8.1 °F 86% 30.34 in 10.0 mi NNW 9.2 mph - N/A   Clear
2:55 AM -4.5 °F -22.8 °F -8.0 °F 85% 30.35 in 10.0 mi NNW 11.5 mph - N/A   Clear
3:15 AM -4.4 °F -21.6 °F -7.8 °F 85% 30.34 in 10.0 mi North 10.4 mph - N/A   Clear
3:35 AM -4.4 °F -22.6 °F -7.6 °F 86% 30.35 in 10.0 mi NNW 11.5 mph - N/A   Clear
3:55 AM -4.2 °F -20.4 °F -7.4 °F 86% 30.35 in 10.0 mi NNW 9.2 mph - N/A   Clear
4:15 AM -4.0 °F -23.0 °F -7.1 °F 87% 30.35 in 10.0 mi NNW 12.7 mph - N/A   Clear
4:35 AM -4.2 °F -22.3 °F -7.6 °F 85% 30.35 in 10.0 mi NNW 11.5 mph - N/A   Clear
4:55 AM -4.2 °F -22.3 °F -7.6 °F 85% 30.35 in 10.0 mi NNW 11.5 mph - N/A   Clear
5:15 AM -4.4 °F -21.6 °F -7.8 °F 85% 30.35 in 10.0 mi NNW 10.4 mph - N/A   Clear
5:55 AM -4.0 °F -25.2 °F -7.6 °F 85% 30.36 in 5.0 mi North 16.1 mph - N/A   Scattered Clouds
6:15 AM -4.2 °F -24.0 °F -7.8 °F 84% 30.37 in 7.0 mi North 13.8 mph - N/A   Clear
6:34 AM -4.2 °F -24.0 °F -7.8 °F 84% 30.37 in 7.0 mi North 13.8 mph 18.4 mph N/A   Clear
6:55 AM -4.4 °F -21.6 °F -8.0 °F 84% 30.38 in 10.0 mi North 10.4 mph - N/A   Clear
7:15 AM -4.4 °F -22.6 °F -8.0 °F 84% 30.39 in 10.0 mi NNW 11.5 mph - N/A   Clear
7:34 AM -4.7 °F -25.4 °F -8.1 °F 85% 30.39 in 10.0 mi North 15.0 mph - N/A   Mostly Cloudy
7:55 AM -4.9 °F -24.1 °F -8.1 °F 86% 30.40 in 10.0 mi NNW 12.7 mph - N/A   Mostly Cloudy
8:15 AM -4.9 °F -23.2 °F -8.1 °F 86% 30.41 in 10.0 mi NNW 11.5 mph - N/A   Scattered Clouds
8:35 AM -4.4 °F -23.4 °F -7.8 °F 85% 30.41 in 10.0 mi North 12.7 mph - N/A   Clear
8:55 AM -4.0 °F -23.7 °F -7.6 °F 85% 30.43 in 10.0 mi NNW 13.8 mph - N/A   Clear
9:15 AM -3.3 °F -21.2 °F -6.7 °F 85% 30.44 in 10.0 mi North 11.5 mph - N/A   Clear
9:35 AM -2.2 °F -18.0 °F -5.8 °F 85% 30.45 in 10.0 mi NNW 9.2 mph - N/A   Clear
9:55 AM -1.7 °F -19.2 °F -5.3 °F 85% 30.46 in 10.0 mi NNW 11.5 mph - N/A   Clear
10:15 AM -0.6 °F -16.9 °F -4.4 °F 84% 30.46 in 10.0 mi NNW 10.4 mph - N/A   Clear
10:35 AM -0.4 °F -15.7 °F -4.2 °F 84% 30.46 in 10.0 mi NNW 9.2 mph - N/A   Clear
10:55 AM 0.3 °F -16.7 °F -4.0 °F 82% 30.46 in 10.0 mi NNW 11.5 mph - N/A   Clear
11:15 AM 1.4 °F -13.5 °F -3.1 °F 81% 30.46 in 10.0 mi NNW 9.2 mph - N/A   Clear
11:35 AM 1.8 °F -14.0 °F -2.9 °F 81% 30.45 in 10.0 mi NNW 10.4 mph - N/A   Clear
11:55 AM 2.8 °F -11.7 °F -2.0 °F 80% 30.46 in 10.0 mi NNW 9.2 mph - N/A   Clear
12:15 PM 3.6 °F -10.9 °F -1.5 °F 80% 30.45 in 10.0 mi NNW 9.2 mph - N/A   Clear
12:35 PM 4.1 °F -9.2 °F -1.1 °F 79% 30.44 in 10.0 mi NNW 8.1 mph - N/A   Clear
12:54 PM 4.1 °F -10.2 °F -1.1 °F 79% 30.44 in 10.0 mi NNW 9.2 mph - N/A   Clear
1:15 PM 4.6 °F -8.5 °F -0.4 °F 80% 30.43 in 10.0 mi NNW 8.1 mph - N/A   Clear
1:35 PM 5.0 °F -8.1 °F -0.2 °F 79% 30.42 in 10.0 mi NNW 8.1 mph - N/A   Clear
1:55 PM 5.7 °F -7.2 °F 0.7 °F 80% 30.41 in 10.0 mi North 8.1 mph - N/A   Clear
2:15 PM 5.9 °F -10.5 °F 0.9 °F 80% 30.39 in 10.0 mi NNW 12.7 mph - N/A   Clear
2:35 PM 6.1 °F -10.2 °F 1.0 °F 80% 30.37 in 10.0 mi NNW 12.7 mph - N/A   Clear
2:55 PM 5.9 °F -9.7 °F 0.7 °F 79% 30.38 in 10.0 mi NNW 11.5 mph - N/A   Clear
3:15 PM 5.7 °F -9.9 °F 0.5 °F 79% 30.38 in 10.0 mi North 11.5 mph - N/A   Clear
3:35 PM 5.7 °F -9.9 °F 0.5 °F 79% 30.39 in 10.0 mi NNW 11.5 mph - N/A   Clear
3:55 PM 5.0 °F -8.1 °F 0.1 °F 80% 30.40 in 10.0 mi North 8.1 mph - N/A   Clear
4:15 PM 4.1 °F -9.2 °F -0.4 °F 82% 30.41 in 10.0 mi North 8.1 mph - N/A   Clear
4:55 PM 2.8 °F -6.6 °F -1.3 °F 83% 30.43 in 10.0 mi NNW 4.6 mph - N/A   Clear
5:14 PM 2.8 °F -6.6 °F -1.3 °F 83% 30.43 in 10.0 mi NNW 4.6 mph - N/A   Clear
5:35 PM 2.8 °F -4.6 °F -1.3 °F 83% 30.44 in 10.0 mi NNW 3.5 mph - N/A   Clear
5:55 PM 3.2 °F -4.2 °F -1.1 °F 82% 30.43 in 10.0 mi NW 3.5 mph - N/A   Clear
6:15 PM 3.6 °F -5.7 °F -0.4 °F 84% 30.43 in 10.0 mi WNW 4.6 mph - N/A   Clear
6:35 PM 3.9 °F -5.3 °F -0.6 °F 82% 30.44 in 10.0 mi WNW 4.6 mph - N/A   Clear
6:55 PM 4.1 °F -3.2 °F -0.6 °F 81% 30.44 in 10.0 mi WNW 3.5 mph - N/A   Clear
7:15 PM 4.1 °F -3.2 °F -0.4 °F 82% 30.44 in 10.0 mi NW 3.5 mph - N/A   Clear
7:35 PM 3.7 °F -3.6 °F -0.6 °F 82% 30.43 in 10.0 mi NNW 3.5 mph - N/A   Clear
7:55 PM 3.7 °F -7.1 °F -0.4 °F 83% 30.41 in 10.0 mi NNW 5.8 mph - N/A   Clear
8:15 PM 3.7 °F -5.5 °F -0.4 °F 83% 30.41 in 10.0 mi North 4.6 mph - N/A   Clear
8:35 PM 3.6 °F -5.7 °F -0.4 °F 84% 30.40 in 10.0 mi NNW 4.6 mph - N/A   Clear
8:55 PM 3.2 °F -6.2 °F -0.6 °F 84% 30.39 in 10.0 mi NNW 4.6 mph - N/A   Clear
9:15 PM 2.8 °F -8.2 °F -0.8 °F 85% 30.38 in 10.0 mi NNW 5.8 mph - N/A   Clear
9:34 PM 2.8 °F -8.2 °F -0.8 °F 85% 30.37 in 10.0 mi NNW 5.8 mph - N/A   Clear
9:55 PM 3.2 °F -7.8 °F -0.6 °F 84% 30.37 in 10.0 mi NW 5.8 mph - N/A   Clear
10:15 PM 3.0 °F -9.3 °F -0.6 °F 85% 30.36 in 10.0 mi NW 6.9 mph - N/A   Clear
10:35 PM 3.2 °F -9.1 °F -0.8 °F 84% 30.36 in 10.0 mi NNW 6.9 mph - N/A   Clear
10:55 PM 2.3 °F -8.8 °F -1.3 °F 85% 30.36 in 10.0 mi NNW 5.8 mph - N/A   Clear
11:15 PM 2.1 °F -10.4 °F -1.5 °F 85% 30.35 in 10.0 mi NNW 6.9 mph - N/A   Clear
11:35 PM 1.8 °F -5.8 °F -2.0 °F 84% 30.35 in 10.0 mi North 3.5 mph - N/A   Clear
11:55 PM 1.4 °F -11.3 °F -2.2 °F 85% 30.35 in 10.0 mi North 6.9 mph - N/A   Clear